Terminal Aerodrome Forecast
Issued by NWS Louisville, KY

Home | Current Version | Previous Version | Text Only | Print | Product List | Glossary On
Versions: 1 2 3 4 5 6 7 8 9 10 11 12 13
142
FTUS43 KLMK 072334
TAFBWG
TAF
KBWG 072334Z 0800/0824 VRB03KT P6SM OVC100
     FM080900 31008KT P6SM OVC060
     FM081500 31010KT P6SM SCT250=

USA.gov is the U.S. government's official web portal to all federal, state and local government web resources and services.